Time;durP1;ratioP1;P1;durP2;ratioP2;P2;SDS_P1;SDS_P2;PMS_P1;PMS_P2;Temp;Humidity;BMP_temperature;BMP_pressure;BME280_temperature;BME280_humidity;BME280_pressure;Samples;Min_cycle;Max_cycle;Signal;HPM_P1;HPM_P2
2023/08/12 00:00:19;;;;;;;;;;;20.20;99.90;;;;;;5072090;28;19970;-73
2023/08/12 00:02:51;;;;;;;;;;;20.20;99.90;;;;;;5054965;28;19924;-73
2023/08/12 00:05:16;;;;;;;;;;;20.10;99.90;;;;;;5071826;28;20019;-72
2023/08/12 00:07:42;;;;;;;;;;;20.10;99.90;;;;;;5071699;28;19972;-73
2023/08/12 00:10:12;;;;;;;;;;;20.10;99.90;;;;;;5055634;28;19921;-73
2023/08/12 00:12:41;;;;;;;;;;;20.10;99.90;;;;;;5071936;28;20292;-72
2023/08/12 00:15:08;;;;;;;;;;;20.00;99.90;;;;;;5055025;28;19947;-72
2023/08/12 00:17:37;;;;;;;;;;;20.00;99.90;;;;;;5057831;28;20023;-73
2023/08/12 00:20:10;;;;;;;;;;;20.00;99.90;;;;;;5076212;28;19920;-73
2023/08/12 00:22:37;;;;;;;;;;;20.00;99.90;;;;;;5075443;28;20069;-72
2023/08/12 00:25:02;;;;;;;;;;;20.00;99.90;;;;;;5075859;28;19920;-73
2023/08/12 00:27:28;;;;;;;;;;;20.00;99.90;;;;;;5059191;28;20421;-73
2023/08/12 00:29:54;;;;;;;;;;;20.00;99.90;;;;;;5059385;28;19920;-72
2023/08/12 00:32:19;;;;;;;;;;;19.90;99.90;;;;;;5075275;28;19966;-73
2023/08/12 00:34:45;;;;;;;;;;;19.90;99.90;;;;;;5075793;28;20430;-73
2023/08/12 00:37:11;;;;;;;;;;;20.00;99.90;;;;;;5075514;28;19959;-72
2023/08/12 00:39:36;;;;;;;;;;;20.00;99.90;;;;;;5075373;28;19933;-73
2023/08/12 00:42:02;;;;;;;;;;;20.00;99.90;;;;;;5074983;28;19925;-72
2023/08/12 00:44:34;;;;;;;;;;;19.90;99.90;;;;;;5074569;28;19924;-71
2023/08/12 00:47:00;;;;;;;;;;;19.90;99.90;;;;;;5042566;28;19974;-73
2023/08/12 00:49:26;;;;;;;;;;;19.90;99.90;;;;;;5058405;28;19920;-72
2023/08/12 00:51:52;;;;;;;;;;;19.90;99.90;;;;;;5058482;28;20343;-72
2023/08/12 00:54:19;;;;;;;;;;;19.90;99.90;;;;;;5075105;28;19920;-72
2023/08/12 00:56:44;;;;;;;;;;;19.90;99.90;;;;;;5074989;28;19920;-72
2023/08/12 00:59:11;;;;;;;;;;;19.90;99.90;;;;;;5074814;28;20357;-72
2023/08/12 01:02:00;;;;;;;;;;;19.90;99.90;;;;;;5058252;28;20418;-72
2023/08/12 01:04:24;;;;;;;;;;;19.90;99.90;;;;;;5074077;28;19965;-71
2023/08/12 01:06:50;;;;;;;;;;;19.90;99.90;;;;;;5074874;28;19921;-73
2023/08/12 01:09:27;;;;;;;;;;;19.90;99.90;;;;;;5074176;28;19920;-73
2023/08/12 01:11:53;;;;;;;;;;;19.90;99.90;;;;;;5041316;28;19943;-74
2023/08/12 01:14:35;;;;;;;;;;;19.90;99.90;;;;;;5074389;28;19920;-73
2023/08/12 01:17:06;;;;;;;;;;;19.90;99.90;;;;;;5074220;28;20011;-75
2023/08/12 01:19:39;;;;;;;;;;;19.90;99.90;;;;;;5074169;28;19966;-73
2023/08/12 01:22:19;;;;;;;;;;;19.90;99.90;;;;;;5074344;28;19972;-73
2023/08/12 01:24:45;;;;;;;;;;;19.90;99.90;;;;;;5057298;28;19924;-72
2023/08/12 01:27:11;;;;;;;;;;;19.90;99.90;;;;;;5057415;28;20269;-72
2023/08/12 01:29:40;;;;;;;;;;;19.90;99.90;;;;;;5073820;28;19924;-73
2023/08/12 01:32:25;;;;;;;;;;;19.90;99.90;;;;;;5073886;28;19935;-72
2023/08/12 01:34:53;;;;;;;;;;;19.80;99.90;;;;;;5057074;28;19971;-73
2023/08/12 01:37:27;;;;;;;;;;;19.80;99.90;;;;;;5075042;28;20016;-72
2023/08/12 01:39:55;;;;;;;;;;;19.80;99.90;;;;;;5073702;28;19966;-72
2023/08/12 01:42:20;;;;;;;;;;;19.80;99.90;;;;;;5073535;28;19931;-72
2023/08/12 01:44:46;;;;;;;;;;;19.80;99.90;;;;;;5073423;28;20385;-72
2023/08/12 01:47:16;;;;;;;;;;;19.80;99.90;;;;;;5056825;28;19920;-74
2023/08/12 01:49:51;;;;;;;;;;;19.70;99.90;;;;;;5058417;28;19920;-73
2023/08/12 01:52:16;;;;;;;;;;;19.70;99.90;;;;;;5073325;28;20011;-72
2023/08/12 01:54:42;;;;;;;;;;;19.60;99.90;;;;;;5073523;28;19920;-73
2023/08/12 01:57:08;;;;;;;;;;;19.70;99.90;;;;;;5073181;28;20459;-73
2023/08/12 01:59:35;;;;;;;;;;;19.60;99.90;;;;;;5073339;28;19974;-72
2023/08/12 02:02:01;;;;;;;;;;;19.60;99.90;;;;;;5073137;28;19924;-72
2023/08/12 02:04:26;;;;;;;;;;;19.60;99.90;;;;;;5073145;28;19971;-71
2023/08/12 02:06:53;;;;;;;;;;;19.50;99.90;;;;;;5056420;28;19999;-73
2023/08/12 02:09:18;;;;;;;;;;;19.50;99.90;;;;;;5073116;28;19928;-73
2023/08/12 02:11:44;;;;;;;;;;;19.50;99.90;;;;;;5056471;28;19920;-73
2023/08/12 02:14:10;;;;;;;;;;;19.50;99.90;;;;;;5073235;28;20395;-72
2023/08/12 02:16:35;;;;;;;;;;;19.50;99.90;;;;;;5073145;28;19921;-72
2023/08/12 02:19:01;;;;;;;;;;;19.40;99.90;;;;;;5073059;28;19927;-73
2023/08/12 02:21:27;;;;;;;;;;;19.40;99.90;;;;;;5072854;28;19928;-72
2023/08/12 02:23:52;;;;;;;;;;;19.30;99.90;;;;;;5072854;28;19983;-72
2023/08/12 02:26:18;;;;;;;;;;;19.40;99.90;;;;;;5072845;28;19927;-71
2023/08/12 02:28:44;;;;;;;;;;;19.40;99.90;;;;;;5056214;28;19928;-71
2023/08/12 02:31:09;;;;;;;;;;;19.40;99.90;;;;;;5072844;28;20273;-72
2023/08/12 02:33:35;;;;;;;;;;;19.40;99.90;;;;;;5056260;28;19920;-73
2023/08/12 02:36:04;;;;;;;;;;;19.50;99.90;;;;;;5072458;28;19920;-73
2023/08/12 02:38:30;;;;;;;;;;;19.50;99.90;;;;;;5056135;28;19968;-73
2023/08/12 02:41:02;;;;;;;;;;;19.50;99.90;;;;;;5055563;28;20339;-74
2023/08/12 02:43:28;;;;;;;;;;;19.50;99.90;;;;;;5039224;28;19920;-73
2023/08/12 02:46:15;;;;;;;;;;;19.50;99.90;;;;;;5072181;28;19925;-73
2023/08/12 02:48:40;;;;;;;;;;;19.50;99.90;;;;;;5072086;28;19927;-72
2023/08/12 02:51:06;;;;;;;;;;;19.50;99.90;;;;;;5055905;28;19920;-73
2023/08/12 02:53:31;;;;;;;;;;;19.60;99.90;;;;;;5055779;28;19920;-72
2023/08/12 02:55:57;;;;;;;;;;;19.60;99.90;;;;;;5072393;28;20296;-71
2023/08/12 02:58:23;;;;;;;;;;;19.50;99.90;;;;;;5072272;28;19975;-73
2023/08/12 03:00:51;;;;;;;;;;;19.60;99.90;;;;;;5055930;28;20288;-73
2023/08/12 03:03:17;;;;;;;;;;;19.60;99.90;;;;;;5072335;28;19935;-73
2023/08/12 03:06:20;;;;;;;;;;;19.60;99.90;;;;;;5072660;28;19921;-73
2023/08/12 03:08:41;;;;;;;;;;;19.60;99.90;;;;;;5069318;28;19921;-72
2023/08/12 03:11:07;;;;;;;;;;;19.60;99.90;;;;;;5055910;28;19924;-72
2023/08/12 03:13:33;;;;;;;;;;;19.60;99.90;;;;;;5072096;28;19920;-73
2023/08/12 03:15:59;;;;;;;;;;;19.70;99.90;;;;;;5055841;28;19920;-71
2023/08/12 03:18:24;;;;;;;;;;;19.70;99.90;;;;;;5055615;28;19920;-72
2023/08/12 03:20:50;;;;;;;;;;;19.70;99.90;;;;;;5072131;28;19960;-71
2023/08/12 03:23:15;;;;;;;;;;;19.70;99.90;;;;;;5071862;28;19947;-73
2023/08/12 03:25:41;;;;;;;;;;;19.70;99.90;;;;;;5072048;28;19921;-74
2023/08/12 03:28:07;;;;;;;;;;;19.70;99.90;;;;;;5071998;28;19925;-73
2023/08/12 03:30:33;;;;;;;;;;;19.70;99.90;;;;;;5055387;28;20019;-73
2023/08/12 03:32:59;;;;;;;;;;;19.70;99.90;;;;;;5071947;28;20444;-72
2023/08/12 03:35:24;;;;;;;;;;;19.70;99.90;;;;;;5055360;28;19920;-73
2023/08/12 03:37:52;;;;;;;;;;;19.70;99.90;;;;;;5055193;28;19982;-73
2023/08/12 03:40:17;;;;;;;;;;;19.70;99.90;;;;;;5071754;28;20008;-73
2023/08/12 03:42:43;;;;;;;;;;;19.60;99.90;;;;;;5071795;28;20007;-73
2023/08/12 03:45:09;;;;;;;;;;;19.60;99.90;;;;;;5071683;28;19925;-72
2023/08/12 03:47:35;;;;;;;;;;;19.60;99.90;;;;;;5055649;28;20035;-67
2023/08/12 03:50:00;;;;;;;;;;;19.60;99.90;;;;;;5072225;28;19970;-68
2023/08/12 03:52:26;;;;;;;;;;;19.50;99.90;;;;;;5058698;28;20380;-68
2023/08/12 03:54:53;;;;;;;;;;;19.50;99.90;;;;;;5075867;28;20318;-67
2023/08/12 03:57:18;;;;;;;;;;;19.50;99.90;;;;;;5075483;28;20007;-67
2023/08/12 03:59:44;;;;;;;;;;;19.50;99.90;;;;;;5059166;28;20399;-66
2023/08/12 04:02:10;;;;;;;;;;;19.50;99.90;;;;;;5075330;28;20017;-65
2023/08/12 04:04:36;;;;;;;;;;;19.50;99.90;;;;;;5075303;28;19921;-66
2023/08/12 04:07:01;;;;;;;;;;;19.50;99.90;;;;;;5075310;28;20403;-67
2023/08/12 04:09:27;;;;;;;;;;;19.50;99.90;;;;;;5075375;28;19966;-66
2023/08/12 04:11:53;;;;;;;;;;;19.50;99.90;;;;;;5075370;28;19920;-65
2023/08/12 04:14:19;;;;;;;;;;;19.50;99.90;;;;;;5075191;28;19970;-67
2023/08/12 04:16:44;;;;;;;;;;;19.50;99.90;;;;;;5075146;28;20304;-67
2023/08/12 04:19:19;;;;;;;;;;;19.50;99.90;;;;;;5058357;28;19921;-65
2023/08/12 04:21:46;;;;;;;;;;;19.50;99.90;;;;;;5058326;28;19925;-67
2023/08/12 04:24:15;;;;;;;;;;;19.50;99.90;;;;;;5058607;28;19928;-66
2023/08/12 04:26:40;;;;;;;;;;;19.50;99.90;;;;;;5074972;28;19927;-65
2023/08/12 04:29:08;;;;;;;;;;;19.50;99.90;;;;;;5074822;28;20320;-67
2023/08/12 04:31:34;;;;;;;;;;;19.50;99.90;;;;;;5075228;28;20300;-66
2023/08/12 04:34:00;;;;;;;;;;;19.50;99.90;;;;;;5074898;28;19928;-67
2023/08/12 04:36:25;;;;;;;;;;;19.50;99.90;;;;;;5041876;28;19921;-66
2023/08/12 04:38:51;;;;;;;;;;;19.50;99.90;;;;;;5074777;28;19920;-67
2023/08/12 04:41:18;;;;;;;;;;;19.50;99.90;;;;;;5058193;28;19928;-66
2023/08/12 04:43:50;;;;;;;;;;;19.50;99.90;;;;;;5074965;28;19920;-66
2023/08/12 04:46:19;;;;;;;;;;;19.50;99.90;;;;;;5074544;28;20387;-67
2023/08/12 04:48:45;;;;;;;;;;;19.50;99.90;;;;;;5074678;28;19947;-67
2023/08/12 04:51:11;;;;;;;;;;;19.50;99.90;;;;;;5074600;28;19927;-66
2023/08/12 04:53:36;;;;;;;;;;;19.50;99.90;;;;;;5074540;28;19924;-66
2023/08/12 04:56:02;;;;;;;;;;;19.50;99.90;;;;;;5074486;28;19921;-66
2023/08/12 04:58:28;;;;;;;;;;;19.50;99.90;;;;;;5058092;28;20388;-66
2023/08/12 05:00:54;;;;;;;;;;;19.50;99.90;;;;;;5074311;28;19927;-67
2023/08/12 05:03:19;;;;;;;;;;;19.50;99.90;;;;;;5073440;28;20023;-67
2023/08/12 05:05:49;;;;;;;;;;;19.50;99.90;;;;;;5057577;28;19920;-66
2023/08/12 05:08:27;;;;;;;;;;;19.50;99.90;;;;;;5074273;28;19921;-66
2023/08/12 05:10:53;;;;;;;;;;;19.50;99.90;;;;;;5074459;28;20413;-67
2023/08/12 05:13:19;;;;;;;;;;;19.50;99.90;;;;;;5057677;28;20292;-66
2023/08/12 05:15:48;;;;;;;;;;;19.50;99.90;;;;;;5075368;28;19920;-68
2023/08/12 05:18:14;;;;;;;;;;;19.60;99.90;;;;;;5074309;28;20304;-66
2023/08/12 05:20:47;;;;;;;;;;;19.60;99.90;;;;;;5073964;28;19921;-67
2023/08/12 05:23:12;;;;;;;;;;;19.60;99.90;;;;;;5073919;28;19924;-66
2023/08/12 05:25:39;;;;;;;;;;;19.70;99.90;;;;;;5057254;28;20407;-66
2023/08/12 05:28:05;;;;;;;;;;;19.70;99.90;;;;;;5073926;28;19959;-68
2023/08/12 05:30:31;;;;;;;;;;;19.70;99.90;;;;;;5074077;28;20384;-66
2023/08/12 05:32:56;;;;;;;;;;;19.70;99.90;;;;;;5073943;28;19924;-66
2023/08/12 05:35:25;;;;;;;;;;;19.80;99.90;;;;;;5074065;28;20006;-68
2023/08/12 05:38:03;;;;;;;;;;;19.80;99.90;;;;;;5057398;28;19963;-66
2023/08/12 05:40:29;;;;;;;;;;;19.80;99.90;;;;;;5056938;28;19920;-66
2023/08/12 05:42:54;;;;;;;;;;;19.80;99.90;;;;;;5073475;28;19924;-65
2023/08/12 05:45:20;;;;;;;;;;;19.90;99.90;;;;;;5073125;28;19930;-66
2023/08/12 05:47:46;;;;;;;;;;;20.00;99.90;;;;;;5056820;28;19938;-65
2023/08/12 05:50:12;;;;;;;;;;;20.00;99.90;;;;;;5057129;28;20436;-65
2023/08/12 05:52:37;;;;;;;;;;;20.20;99.90;;;;;;5056609;28;20396;-66
2023/08/12 05:55:03;;;;;;;;;;;20.30;99.90;;;;;;5056971;28;20011;-66
2023/08/12 05:58:15;;;;;;;;;;;20.40;99.90;;;;;;5057054;28;20306;-67
2023/08/12 06:00:37;;;;;;;;;;;20.50;99.90;;;;;;5069111;28;19921;-67
2023/08/12 06:03:03;;;;;;;;;;;20.60;99.90;;;;;;5073032;28;20023;-65
2023/08/12 06:05:31;;;;;;;;;;;20.60;99.90;;;;;;5056527;28;19959;-65
2023/08/12 06:07:57;;;;;;;;;;;20.60;99.90;;;;;;5073001;28;19964;-65
2023/08/12 06:10:22;;;;;;;;;;;20.70;99.90;;;;;;5073287;28;19970;-66
2023/08/12 06:12:48;;;;;;;;;;;20.80;99.90;;;;;;5056241;28;19920;-66
2023/08/12 06:15:19;;;;;;;;;;;21.20;99.90;;;;;;5056514;28;19921;-66
2023/08/12 06:17:45;;;;;;;;;;;21.40;99.90;;;;;;5072926;28;19924;-73
2023/08/12 06:20:13;;;;;;;;;;;21.80;99.90;;;;;;5073175;28;19920;-71
2023/08/12 06:22:38;;;;;;;;;;;22.20;99.90;;;;;;5073007;28;19974;-72
2023/08/12 06:25:04;;;;;;;;;;;22.20;99.90;;;;;;5073215;28;20296;-72
2023/08/12 06:27:39;;;;;;;;;;;22.20;99.90;;;;;;5073286;28;19931;-67
2023/08/12 06:30:06;;;;;;;;;;;22.20;99.90;;;;;;5040244;28;19921;-66
2023/08/12 06:32:33;;;;;;;;;;;22.20;99.90;;;;;;5056448;28;19971;-66
2023/08/12 06:34:58;;;;;;;;;;;22.20;99.90;;;;;;5072758;28;19927;-67
2023/08/12 06:37:27;;;;;;;;;;;22.10;99.90;;;;;;5056736;28;19920;-65
2023/08/12 06:39:53;;;;;;;;;;;21.90;99.90;;;;;;5072801;28;20023;-65
2023/08/12 06:42:19;;;;;;;;;;;21.90;99.90;;;;;;5072617;28;20037;-66
2023/08/12 06:44:55;;;;;;;;;;;21.80;99.90;;;;;;5055460;28;20055;-65
2023/08/12 06:47:21;;;;;;;;;;;21.80;99.90;;;;;;5072483;28;19924;-65
2023/08/12 06:49:47;;;;;;;;;;;21.70;99.90;;;;;;5072870;28;19931;-64
2023/08/12 06:52:18;;;;;;;;;;;21.70;99.90;;;;;;5055774;28;19921;-66
2023/08/12 06:54:53;;;;;;;;;;;21.70;99.90;;;;;;5073170;28;20323;-66
2023/08/12 06:57:18;;;;;;;;;;;21.70;99.90;;;;;;5072353;28;19921;-67
2023/08/12 06:59:53;;;;;;;;;;;21.70;99.90;;;;;;5056117;28;19920;-66
2023/08/12 07:02:19;;;;;;;;;;;21.70;99.90;;;;;;5055745;28;19959;-67
2023/08/12 07:04:54;;;;;;;;;;;21.60;99.90;;;;;;5055670;28;19931;-66
2023/08/12 07:07:19;;;;;;;;;;;21.60;99.90;;;;;;5072252;28;19920;-67
2023/08/12 07:09:45;;;;;;;;;;;21.50;99.90;;;;;;5055662;28;19966;-66
2023/08/12 07:12:11;;;;;;;;;;;21.50;99.90;;;;;;5072155;28;20376;-67
2023/08/12 07:14:36;;;;;;;;;;;21.40;99.90;;;;;;5072347;28;19931;-66
2023/08/12 07:17:02;;;;;;;;;;;21.40;99.90;;;;;;5072214;28;19928;-67
2023/08/12 07:19:27;;;;;;;;;;;21.40;99.90;;;;;;5072232;28;20372;-67
2023/08/12 07:22:13;;;;;;;;;;;21.30;99.90;;;;;;5055836;28;19927;-67
2023/08/12 07:24:39;;;;;;;;;;;21.30;99.90;;;;;;5071936;28;19928;-66
2023/08/12 07:27:05;;;;;;;;;;;21.30;99.90;;;;;;5072818;28;19928;-67
2023/08/12 07:29:31;;;;;;;;;;;21.30;99.90;;;;;;5077492;28;19920;-67
2023/08/12 07:32:13;;;;;;;;;;;;;;;;;;;;;
2023/08/12 07:34:42;;;;;;;;;;;21.30;99.90;;;;;;5061812;28;20023;-67
2023/08/12 07:37:07;;;;;;;;;;;21.20;99.90;;;;;;5059679;28;19976;-66
2023/08/12 07:39:33;;;;;;;;;;;21.20;99.90;;;;;;5059728;28;19920;-66
2023/08/12 07:41:59;;;;;;;;;;;21.10;99.90;;;;;;5075914;28;19927;-66
2023/08/12 07:44:39;;;;;;;;;;;21.00;99.90;;;;;;5044434;28;19928;-67
2023/08/12 07:47:06;;;;;;;;;;;21.00;99.90;;;;;;5039354;28;19975;-71
2023/08/12 07:49:31;;;;;;;;;;;21.00;99.90;;;;;;5022611;28;19978;-71
2023/08/12 07:51:57;;;;;;;;;;;21.00;99.90;;;;;;5055644;28;20335;-72
2023/08/12 07:54:22;;;;;;;;;;;20.90;99.90;;;;;;5039091;28;19920;-71
2023/08/12 07:56:48;;;;;;;;;;;20.90;99.90;;;;;;5055550;28;20376;-72
2023/08/12 07:59:14;;;;;;;;;;;20.90;99.90;;;;;;5055545;28;19970;-71
2023/08/12 08:01:40;;;;;;;;;;;20.80;99.90;;;;;;5055733;28;19928;-72
2023/08/12 08:04:16;;;;;;;;;;;20.90;99.90;;;;;;5022392;28;19925;-71
2023/08/12 08:06:42;;;;;;;;;;;20.90;99.90;;;;;;5056796;28;20376;-71
2023/08/12 08:09:08;;;;;;;;;;;20.90;99.90;;;;;;5055263;28;19921;-71
2023/08/12 08:11:34;;;;;;;;;;;20.90;99.90;;;;;;5039007;28;19921;-73
2023/08/12 08:13:59;;;;;;;;;;;20.90;99.90;;;;;;5022620;28;20012;-71
2023/08/12 08:16:25;;;;;;;;;;;20.90;99.90;;;;;;5055788;28;19968;-72
2023/08/12 08:18:51;;;;;;;;;;;20.90;99.90;;;;;;5038701;28;20281;-71
2023/08/12 08:21:16;;;;;;;;;;;20.90;99.90;;;;;;5038646;28;20478;-71
2023/08/12 08:23:42;;;;;;;;;;;20.90;99.90;;;;;;5022236;28;20385;-72
2023/08/12 08:26:08;;;;;;;;;;;20.90;99.90;;;;;;5022110;28;20288;-72
2023/08/12 08:28:34;;;;;;;;;;;20.90;99.90;;;;;;5023545;28;20019;-71
2023/08/12 08:31:00;;;;;;;;;;;20.90;99.90;;;;;;5025439;28;20438;-72
2023/08/12 08:33:26;;;;;;;;;;;20.90;99.90;;;;;;5058639;28;20360;-72
2023/08/12 08:35:57;;;;;;;;;;;20.80;99.90;;;;;;5044183;28;19921;-71
2023/08/12 08:38:25;;;;;;;;;;;20.80;99.90;;;;;;5034119;28;19920;-70
2023/08/12 08:40:51;;;;;;;;;;;20.70;99.90;;;;;;5074094;28;20402;-71
2023/08/12 08:43:22;;;;;;;;;;;20.70;99.90;;;;;;5071007;28;19924;-72
2023/08/12 08:45:49;;;;;;;;;;;20.70;99.90;;;;;;5048429;28;20396;-70
2023/08/12 08:48:15;;;;;;;;;;;20.60;99.90;;;;;;5082381;28;19920;-70
2023/08/12 08:50:42;;;;;;;;;;;20.60;99.90;;;;;;5084703;28;20410;-70
2023/08/12 08:53:26;;;;;;;;;;;20.60;99.90;;;;;;5083431;28;20014;-70
2023/08/12 08:55:52;;;;;;;;;;;20.60;99.90;;;;;;5077452;28;19927;-70
2023/08/12 08:58:21;;;;;;;;;;;20.60;99.90;;;;;;5078010;28;20003;-69
2023/08/12 09:00:47;;;;;;;;;;;20.60;99.90;;;;;;5076241;28;19924;-70
2023/08/12 09:03:13;;;;;;;;;;;20.70;99.90;;;;;;5075287;28;19978;-69
2023/08/12 09:05:39;;;;;;;;;;;20.60;99.90;;;;;;5058892;28;19924;-70
2023/08/12 09:08:06;;;;;;;;;;;20.60;99.90;;;;;;5075091;28;19925;-69
2023/08/12 09:10:32;;;;;;;;;;;20.60;99.90;;;;;;5075383;28;19963;-72
2023/08/12 09:12:58;;;;;;;;;;;20.70;99.90;;;;;;5075138;28;20310;-70
2023/08/12 09:15:24;;;;;;;;;;;20.80;99.90;;;;;;5075316;28;19921;-71
2023/08/12 09:17:50;;;;;;;;;;;20.70;99.90;;;;;;5075751;28;19921;-70
2023/08/12 09:20:16;;;;;;;;;;;20.60;99.90;;;;;;5075193;28;19920;-71
2023/08/12 09:22:41;;;;;;;;;;;20.60;99.90;;;;;;5074794;28;19924;-72
2023/08/12 09:25:08;;;;;;;;;;;20.60;99.90;;;;;;5075000;28;19947;-70
2023/08/12 09:27:35;;;;;;;;;;;20.60;99.90;;;;;;5074318;28;19921;-71
2023/08/12 09:30:02;;;;;;;;;;;20.50;99.90;;;;;;5074573;28;19921;-72
2023/08/12 09:32:29;;;;;;;;;;;20.50;99.90;;;;;;5057540;28;19920;-71
2023/08/12 09:34:57;;;;;;;;;;;20.50;99.90;;;;;;5074175;28;20284;-70
2023/08/12 09:37:24;;;;;;;;;;;20.40;99.90;;;;;;5074564;28;19920;-69
2023/08/12 09:39:52;;;;;;;;;;;20.40;99.90;;;;;;5074146;28;20019;-69
2023/08/12 09:42:18;;;;;;;;;;;20.30;99.90;;;;;;5073661;28;19925;-69
2023/08/12 09:44:44;;;;;;;;;;;20.30;99.90;;;;;;5056884;28;20403;-70
2023/08/12 09:47:10;;;;;;;;;;;20.30;99.90;;;;;;5074824;28;19924;-71
2023/08/12 09:49:36;;;;;;;;;;;20.30;99.90;;;;;;5073288;28;19924;-69
2023/08/12 09:52:03;;;;;;;;;;;20.20;99.90;;;;;;5057126;28;19920;-71
2023/08/12 09:54:33;;;;;;;;;;;20.20;99.90;;;;;;5057179;28;19920;-71
2023/08/12 09:57:02;;;;;;;;;;;20.10;99.90;;;;;;5040057;28;19927;-67
2023/08/12 09:59:30;;;;;;;;;;;20.10;99.90;;;;;;5073231;28;20019;-68
2023/08/12 10:01:59;;;;;;;;;;;20.10;99.90;;;;;;5073319;28;19929;-67
2023/08/12 10:04:28;;;;;;;;;;;20.10;99.90;;;;;;5073466;28;20292;-67
2023/08/12 10:06:54;;;;;;;;;;;20.20;99.90;;;;;;5073551;28;19921;-71
2023/08/12 10:09:20;;;;;;;;;;;20.10;99.90;;;;;;5073077;28;19969;-70
2023/08/12 10:11:46;;;;;;;;;;;20.00;99.90;;;;;;5056760;28;19920;-71
2023/08/12 10:14:12;;;;;;;;;;;20.00;99.90;;;;;;5056322;28;19951;-70
2023/08/12 10:16:41;;;;;;;;;;;20.00;99.90;;;;;;5056657;28;19921;-69
2023/08/12 10:19:11;;;;;;;;;;;20.00;99.90;;;;;;5073101;28;19924;-70
2023/08/12 10:21:36;;;;;;;;;;;20.00;99.90;;;;;;5072721;28;19924;-71
2023/08/12 10:24:03;;;;;;;;;;;20.10;99.90;;;;;;5056280;28;19989;-70
2023/08/12 10:26:32;;;;;;;;;;;20.00;99.90;;;;;;5073143;28;20019;-70
2023/08/12 10:28:59;;;;;;;;;;;20.00;99.90;;;;;;5054937;28;19955;-70
2023/08/12 10:31:29;;;;;;;;;;;20.10;99.90;;;;;;5072968;28;19920;-70
2023/08/12 10:33:58;;;;;;;;;;;20.00;99.90;;;;;;5072931;28;20292;-71
2023/08/12 10:36:23;;;;;;;;;;;20.00;99.90;;;;;;5073073;28;20272;-71
2023/08/12 10:38:52;;;;;;;;;;;20.00;99.90;;;;;;5072750;28;19928;-70
2023/08/12 10:41:19;;;;;;;;;;;20.10;99.90;;;;;;5072291;28;20253;-71
2023/08/12 10:44:05;;;;;;;;;;;20.10;99.90;;;;;;5072780;28;19964;-70
2023/08/12 10:46:37;;;;;;;;;;;20.10;99.90;;;;;;5055677;28;19924;-71
2023/08/12 10:49:12;;;;;;;;;;;20.10;99.90;;;;;;5072540;28;19952;-70
2023/08/12 10:51:41;;;;;;;;;;;20.10;99.90;;;;;;5072624;28;20011;-70
2023/08/12 10:54:17;;;;;;;;;;;20.20;99.90;;;;;;5056162;28;19924;-70
2023/08/12 10:57:13;;;;;;;;;;;20.30;99.90;;;;;;5056259;28;20421;-70
2023/08/12 10:59:44;;;;;;;;;;;20.30;99.90;;;;;;5062308;28;19967;-71
2023/08/12 11:02:36;;;;;;;;;;;20.40;99.90;;;;;;5071986;28;19967;-70
2023/08/12 11:05:09;;;;;;;;;;;20.50;99.90;;;;;;5072654;28;19970;-71
2023/08/12 11:07:37;;;;;;;;;;;20.60;99.90;;;;;;5072692;28;19927;-69
2023/08/12 11:10:14;;;;;;;;;;;20.70;99.90;;;;;;5072180;28;19920;-67
2023/08/12 11:12:41;;;;;;;;;;;20.70;99.90;;;;;;5072295;28;19921;-68
2023/08/12 11:15:07;;;;;;;;;;;20.80;99.90;;;;;;5072162;28;20069;-67
2023/08/12 11:17:37;;;;;;;;;;;20.90;99.90;;;;;;5072319;28;19989;-68
2023/08/12 11:20:04;;;;;;;;;;;21.00;99.90;;;;;;5055730;28;19927;-67
2023/08/12 11:22:38;;;;;;;;;;;21.20;99.90;;;;;;5055515;28;20477;-67
2023/08/12 11:25:07;;;;;;;;;;;21.30;99.90;;;;;;5040045;28;19920;-67
2023/08/12 11:27:40;;;;;;;;;;;21.40;99.90;;;;;;5072084;28;19921;-68
2023/08/12 11:30:10;;;;;;;;;;;21.40;99.90;;;;;;5072294;28;20318;-68
2023/08/12 11:32:39;;;;;;;;;;;21.50;99.90;;;;;;5072245;28;20384;-67
2023/08/12 11:35:06;;;;;;;;;;;21.60;99.90;;;;;;5055623;28;20397;-68
2023/08/12 11:37:32;;;;;;;;;;;21.80;99.90;;;;;;5055299;28;19920;-67
2023/08/12 11:39:58;;;;;;;;;;;21.70;99.90;;;;;;5072024;28;20019;-69
2023/08/12 11:42:24;;;;;;;;;;;21.70;99.90;;;;;;5071957;28;20018;-68
2023/08/12 11:44:53;;;;;;;;;;;21.70;99.90;;;;;;5055509;28;19924;-69
2023/08/12 11:47:20;;;;;;;;;;;21.60;99.90;;;;;;5054392;28;20016;-68
2023/08/12 11:49:46;;;;;;;;;;;21.70;99.90;;;;;;5071798;28;19971;-69
2023/08/12 11:52:11;;;;;;;;;;;21.70;99.90;;;;;;5072098;28;19928;-68
2023/08/12 11:54:38;;;;;;;;;;;21.70;99.90;;;;;;5055386;28;19976;-68
2023/08/12 11:57:04;;;;;;;;;;;21.70;99.90;;;;;;5055515;28;19969;-68
2023/08/12 11:59:30;;;;;;;;;;;21.70;99.90;;;;;;5055324;28;20277;-67
2023/08/12 12:01:56;;;;;;;;;;;21.70;99.90;;;;;;5071767;28;19931;-68
2023/08/12 12:04:22;;;;;;;;;;;21.70;99.90;;;;;;5071748;28;20334;-68
2023/08/12 12:06:48;;;;;;;;;;;21.60;99.90;;;;;;5055335;28;19920;-67
2023/08/12 12:09:14;;;;;;;;;;;21.60;99.90;;;;;;5071624;28;20058;-67
2023/08/12 12:11:41;;;;;;;;;;;21.70;99.90;;;;;;5039626;28;20394;-67
2023/08/12 12:14:08;;;;;;;;;;;21.80;99.90;;;;;;5059070;28;19931;-67
2023/08/12 12:16:40;;;;;;;;;;;21.80;99.90;;;;;;5075313;28;19921;-68
2023/08/12 12:19:17;;;;;;;;;;;21.90;99.90;;;;;;5075509;28;20345;-67
2023/08/12 12:21:50;;;;;;;;;;;21.90;99.90;;;;;;5075099;28;20038;-68
2023/08/12 12:24:17;;;;;;;;;;;22.00;99.90;;;;;;5058729;28;19925;-68
2023/08/12 12:26:46;;;;;;;;;;;22.00;99.90;;;;;;5075738;28;20402;-72
2023/08/12 12:29:13;;;;;;;;;;;22.00;99.90;;;;;;5075182;28;20019;-74
2023/08/12 12:31:39;;;;;;;;;;;22.00;99.90;;;;;;5075041;28;19967;-72
2023/08/12 12:34:09;;;;;;;;;;;22.10;99.90;;;;;;5075340;28;19921;-71
2023/08/12 12:36:36;;;;;;;;;;;22.20;99.90;;;;;;5075162;28;19921;-73
2023/08/12 12:39:02;;;;;;;;;;;22.30;99.90;;;;;;5074977;28;19920;-71
2023/08/12 12:41:28;;;;;;;;;;;22.30;99.90;;;;;;5075171;28;19924;-72
2023/08/12 12:43:53;;;;;;;;;;;22.40;99.90;;;;;;5075018;28;19929;-72
2023/08/12 12:46:19;;;;;;;;;;;22.30;99.90;;;;;;5057672;28;20358;-73
2023/08/12 12:48:45;;;;;;;;;;;22.20;99.90;;;;;;5075279;28;19977;-71
2023/08/12 12:51:12;;;;;;;;;;;22.20;99.90;;;;;;5058039;28;19928;-72
2023/08/12 12:53:37;;;;;;;;;;;22.10;99.90;;;;;;5058038;28;19931;-71
2023/08/12 12:56:03;;;;;;;;;;;22.10;99.90;;;;;;5074605;28;20373;-73
2023/08/12 12:58:30;;;;;;;;;;;22.40;99.90;;;;;;5057894;28;20013;-71
2023/08/12 13:00:56;;;;;;;;;;;22.60;99.90;;;;;;5057857;28;19931;-73
2023/08/12 13:03:22;;;;;;;;;;;22.80;99.90;;;;;;5074296;28;19925;-73
2023/08/12 13:05:47;;;;;;;;;;;22.90;99.90;;;;;;5074438;28;19925;-73
2023/08/12 13:08:13;;;;;;;;;;;22.90;99.90;;;;;;5057740;28;20449;-74
2023/08/12 13:10:39;;;;;;;;;;;22.90;99.90;;;;;;5058034;28;19944;-73
2023/08/12 13:13:08;;;;;;;;;;;22.90;99.90;;;;;;5074527;28;19921;-74
2023/08/12 13:15:34;;;;;;;;;;;23.00;99.90;;;;;;5057403;28;19920;-71
2023/08/12 13:18:00;;;;;;;;;;;23.10;99.90;;;;;;5074251;28;19920;-73
2023/08/12 13:20:25;;;;;;;;;;;23.20;99.90;;;;;;5074157;28;19920;-73
2023/08/12 13:22:51;;;;;;;;;;;23.20;99.90;;;;;;5073806;28;20003;-73
2023/08/12 13:25:17;;;;;;;;;;;23.20;99.90;;;;;;5074011;28;19947;-72
2023/08/12 13:27:43;;;;;;;;;;;23.20;99.90;;;;;;5073984;28;20004;-73
2023/08/12 13:30:10;;;;;;;;;;;23.20;99.90;;;;;;5074380;28;19987;-72
2023/08/12 13:32:39;;;;;;;;;;;23.20;99.90;;;;;;5057247;28;20015;-75
2023/08/12 13:35:05;;;;;;;;;;;23.20;99.90;;;;;;5057466;28;20253;-67
2023/08/12 13:37:32;;;;;;;;;;;23.00;99.90;;;;;;5057493;28;19921;-73
2023/08/12 13:39:57;;;;;;;;;;;23.00;99.90;;;;;;5073665;28;19935;-73
2023/08/12 13:42:23;;;;;;;;;;;23.00;99.90;;;;;;5057165;28;20289;-73
2023/08/12 13:44:49;;;;;;;;;;;23.10;99.90;;;;;;5073903;28;19928;-72
2023/08/12 13:47:17;;;;;;;;;;;23.10;99.90;;;;;;5056630;28;20443;-73
2023/08/12 13:49:47;;;;;;;;;;;23.10;99.90;;;;;;5073856;28;20054;-73
2023/08/12 13:52:13;;;;;;;;;;;23.20;99.90;;;;;;5073709;28;20340;-73
2023/08/12 13:54:39;;;;;;;;;;;23.20;99.90;;;;;;5073832;28;19970;-74
2023/08/12 13:57:05;;;;;;;;;;;23.20;99.90;;;;;;5040482;28;19927;-73
2023/08/12 13:59:30;;;;;;;;;;;23.20;99.90;;;;;;5056914;28;20356;-72
2023/08/12 14:01:56;;;;;;;;;;;23.20;99.90;;;;;;5040637;28;20026;-73
2023/08/12 14:04:22;;;;;;;;;;;23.20;99.90;;;;;;5057101;28;20382;-73
2023/08/12 14:06:48;;;;;;;;;;;23.20;99.90;;;;;;5040014;28;19921;-73
2023/08/12 14:09:14;;;;;;;;;;;23.20;99.90;;;;;;5056926;28;19928;-72
2023/08/12 14:11:39;;;;;;;;;;;23.30;99.90;;;;;;5073556;28;20352;-72
2023/08/12 14:14:08;;;;;;;;;;;23.30;99.90;;;;;;5057175;28;19974;-73
2023/08/12 14:16:35;;;;;;;;;;;23.30;99.90;;;;;;5073214;28;19943;-73
2023/08/12 14:19:09;;;;;;;;;;;23.30;99.90;;;;;;5040588;28;19928;-73
2023/08/12 14:21:35;;;;;;;;;;;23.40;99.90;;;;;;5073103;28;19927;-74